createdAt,value
2022-09-25T00:00:15.803Z,0.20
2022-09-25T00:02:43.783Z,0.20
2022-09-25T00:05:11.766Z,0.20
2022-09-25T00:07:43.539Z,0.20
2022-09-25T00:10:11.564Z,0.20
2022-09-25T00:12:39.688Z,0.20
2022-09-25T00:15:08.351Z,0.20
2022-09-25T00:17:36.453Z,0.27
2022-09-25T00:20:03.881Z,0.30
2022-09-25T00:22:31.735Z,0.30
2022-09-25T00:25:03.638Z,0.30
2022-09-25T00:27:32.618Z,0.30
2022-09-25T00:30:01.412Z,0.30
2022-09-25T00:32:29.281Z,0.20
2022-09-25T00:34:58.163Z,0.30
2022-09-25T00:37:28.599Z,0.30
2022-09-25T00:39:56.995Z,0.20
2022-09-25T00:42:26.609Z,0.37
2022-09-25T00:44:57.945Z,0.33
2022-09-25T00:47:39.334Z,0.30
2022-09-25T00:50:17.833Z,0.30
2022-09-25T00:52:47.151Z,0.30
2022-09-25T00:55:15.918Z,0.30
2022-09-25T00:57:48.156Z,0.20
2022-09-25T01:00:16.940Z,0.30
2022-09-25T01:02:50.125Z,0.20
2022-09-25T01:05:20.920Z,0.20
2022-09-25T01:07:51.328Z,0.30
2022-09-25T01:10:20.451Z,0.30
2022-09-25T01:12:54.174Z,0.30
2022-09-25T01:15:28.666Z,0.30
2022-09-25T01:18:04.358Z,0.30
2022-09-25T01:20:51.480Z,0.30
2022-09-25T01:23:32.517Z,0.30
2022-09-25T01:26:15.576Z,0.40
2022-09-25T01:29:08.068Z,0.30
2022-09-25T01:31:42.833Z,0.30
2022-09-25T01:34:20.394Z,0.20
2022-09-25T01:36:54.185Z,0.40
2022-09-25T01:39:28.692Z,0.30
2022-09-25T01:42:02.317Z,0.30
2022-09-25T01:44:33.629Z,0.30
2022-09-25T01:47:08.884Z,0.30
2022-09-25T01:49:39.706Z,0.30
2022-09-25T01:52:15.501Z,0.30
2022-09-25T01:54:46.812Z,0.30
2022-09-25T01:57:20.208Z,0.33
2022-09-25T01:59:55.383Z,0.30
2022-09-25T02:02:28.195Z,0.30
2022-09-25T02:05:00.355Z,0.30
2022-09-25T02:07:32.197Z,0.30
2022-09-25T02:10:06.862Z,0.33
2022-09-25T02:12:41.144Z,0.40
2022-09-25T02:15:13.908Z,0.30
2022-09-25T02:18:03.602Z,0.30
2022-09-25T02:20:36.494Z,0.40
2022-09-25T02:23:14.152Z,0.40
2022-09-25T02:25:46.151Z,0.30
2022-09-25T02:28:14.056Z,0.40
2022-09-25T02:30:46.085Z,0.40
2022-09-25T02:33:14.133Z,0.40
2022-09-25T02:35:42.341Z,0.30
2022-09-25T02:38:11.229Z,0.50
2022-09-25T02:40:48.597Z,0.30
2022-09-25T02:43:28.926Z,0.30
2022-09-25T02:46:10.527Z,0.30
2022-09-25T02:48:49.857Z,0.30
2022-09-25T02:51:24.870Z,0.40
2022-09-25T02:54:01.155Z,0.40
2022-09-25T02:56:34.788Z,0.33
2022-09-25T02:59:06.772Z,0.37
2022-09-25T03:01:39.824Z,0.30
2022-09-25T03:04:08.591Z,0.30
2022-09-25T03:06:38.577Z,0.40
2022-09-25T03:09:08.876Z,0.30
2022-09-25T03:11:43.811Z,0.40
2022-09-25T03:14:12.016Z,0.40
2022-09-25T03:16:47.532Z,0.40
2022-09-25T03:19:16.112Z,0.30
2022-09-25T03:21:44.147Z,0.30
2022-09-25T03:24:11.984Z,0.30
2022-09-25T03:26:40.536Z,0.30
2022-09-25T03:29:08.739Z,0.40
2022-09-25T03:31:36.554Z,0.43
2022-09-25T03:34:05.854Z,0.30
2022-09-25T03:36:34.255Z,0.40
2022-09-25T03:39:02.623Z,0.30
2022-09-25T03:41:32.631Z,0.33
2022-09-25T03:44:01.236Z,0.30
2022-09-25T03:46:55.755Z,0.50
2022-09-25T03:49:25.731Z,0.30
2022-09-25T03:51:53.629Z,0.40
2022-09-25T03:54:21.478Z,0.40
2022-09-25T03:56:49.474Z,0.30
2022-09-25T03:59:17.778Z,0.30
2022-09-25T04:01:47.567Z,0.30
2022-09-25T04:04:15.474Z,0.30
2022-09-25T04:06:44.766Z,0.40
2022-09-25T04:09:12.805Z,0.30
2022-09-25T04:11:43.877Z,0.30
2022-09-25T04:14:12.551Z,0.30
2022-09-25T04:16:43.660Z,0.30
2022-09-25T04:19:11.672Z,0.40
2022-09-25T04:21:39.577Z,0.30
2022-09-25T04:24:26.337Z,0.30
2022-09-25T04:26:54.343Z,0.23
2022-09-25T04:29:24.788Z,0.40
2022-09-25T04:32:06.608Z,0.30
2022-09-25T04:34:35.028Z,0.30
2022-09-25T04:37:03.732Z,0.20
2022-09-25T04:39:32.993Z,0.30
2022-09-25T04:42:01.026Z,0.20
2022-09-25T04:44:28.873Z,0.30
2022-09-25T04:46:57.179Z,0.20
2022-09-25T04:49:25.012Z,0.20
2022-09-25T04:51:52.828Z,0.30
2022-09-25T04:54:20.662Z,0.23
2022-09-25T04:56:51.066Z,0.27
2022-09-25T04:59:18.933Z,0.30
2022-09-25T05:01:48.592Z,0.30
2022-09-25T05:04:17.481Z,0.27
2022-09-25T05:06:45.320Z,0.30
2022-09-25T05:09:13.208Z,0.30
2022-09-25T05:11:41.090Z,0.30
2022-09-25T05:14:10.312Z,0.30
2022-09-25T05:16:39.445Z,0.30
2022-09-25T05:19:07.450Z,0.37
2022-09-25T05:21:35.405Z,0.30
2022-09-25T05:24:03.979Z,0.40
2022-09-25T05:26:34.433Z,0.30
2022-09-25T05:29:03.801Z,0.37
2022-09-25T05:31:33.787Z,0.30
2022-09-25T05:34:01.818Z,0.37
2022-09-25T05:36:29.795Z,0.30
2022-09-25T05:38:57.706Z,0.40
2022-09-25T05:41:26.535Z,0.40
2022-09-25T05:43:55.221Z,0.40
2022-09-25T05:46:23.188Z,0.30
2022-09-25T05:48:52.469Z,0.40
2022-09-25T05:51:20.187Z,0.30
2022-09-25T05:53:48.622Z,0.30
2022-09-25T05:56:16.411Z,0.30
2022-09-25T05:58:44.976Z,0.30
2022-09-25T06:01:13.626Z,0.40
2022-09-25T06:03:41.492Z,0.30
2022-09-25T06:06:13.751Z,0.40
2022-09-25T06:08:41.729Z,0.30
2022-09-25T06:11:09.936Z,0.30
2022-09-25T06:13:40.321Z,0.30
2022-09-25T06:16:19.298Z,0.30
2022-09-25T06:18:48.094Z,0.30
2022-09-25T06:21:20.244Z,0.30
2022-09-25T06:23:48.751Z,0.30
2022-09-25T06:26:16.591Z,0.20
2022-09-25T06:28:44.792Z,0.27
2022-09-25T06:31:12.823Z,0.20
2022-09-25T06:33:42.070Z,0.30
2022-09-25T06:36:12.869Z,0.20
2022-09-25T06:38:43.211Z,0.20
2022-09-25T06:41:13.874Z,0.20
2022-09-25T06:43:42.256Z,0.20
2022-09-25T06:46:11.353Z,0.20
2022-09-25T06:48:39.505Z,0.20
2022-09-25T06:51:08.708Z,0.20
2022-09-25T06:53:36.745Z,0.20
2022-09-25T06:56:08.991Z,0.20
2022-09-25T06:58:37.026Z,0.20
2022-09-25T07:01:09.929Z,0.20
2022-09-25T07:03:46.574Z,0.20
2022-09-25T07:06:19.849Z,0.20
2022-09-25T07:08:49.152Z,0.20
2022-09-25T07:11:20.075Z,0.20
2022-09-25T07:13:56.872Z,0.20
2022-09-25T07:16:30.779Z,0.20
2022-09-25T07:19:01.106Z,0.20
2022-09-25T07:21:32.445Z,0.20
2022-09-25T07:24:00.586Z,0.20
2022-09-25T07:26:33.938Z,0.20
2022-09-25T07:29:06.657Z,0.20
2022-09-25T07:31:37.995Z,0.20
2022-09-25T07:34:09.482Z,0.20
2022-09-25T07:36:38.582Z,0.20
2022-09-25T07:39:07.301Z,0.20
2022-09-25T07:41:37.146Z,0.20
2022-09-25T07:44:27.317Z,0.20
2022-09-25T07:46:53.602Z,0.20
2022-09-25T07:49:21.468Z,0.20
2022-09-25T07:51:49.424Z,0.20
2022-09-25T07:54:17.372Z,0.20
2022-09-25T07:56:54.409Z,0.20
2022-09-25T07:59:22.379Z,0.20
2022-09-25T08:01:53.896Z,0.20
2022-09-25T08:04:22.282Z,0.20
2022-09-25T08:06:50.196Z,0.20
2022-09-25T08:09:18.113Z,0.20
2022-09-25T08:11:47.455Z,0.20
2022-09-25T08:14:15.801Z,0.20
2022-09-25T08:16:44.068Z,0.20
2022-09-25T08:19:12.368Z,0.20
2022-09-25T08:21:40.595Z,0.20
2022-09-25T08:24:11.992Z,0.20
2022-09-25T08:26:40.154Z,0.20
2022-09-25T08:29:13.443Z,0.20
2022-09-25T08:31:41.438Z,0.20
2022-09-25T08:34:39.031Z,0.20
2022-09-25T08:36:58.380Z,0.20
2022-09-25T08:39:26.397Z,0.20
2022-09-25T08:41:56.154Z,0.20
2022-09-25T08:44:29.603Z,0.20
2022-09-25T08:47:19.998Z,0.20
2022-09-25T08:49:59.089Z,0.20
2022-09-25T08:52:27.229Z,0.20
2022-09-25T08:54:55.527Z,0.20
2022-09-25T08:57:31.418Z,0.20
2022-09-25T09:00:07.720Z,0.20
2022-09-25T09:02:42.335Z,0.20
2022-09-25T09:05:18.826Z,0.20
2022-09-25T09:07:53.394Z,0.20
2022-09-25T09:10:35.232Z,0.20
2022-09-25T09:13:12.259Z,0.20
2022-09-25T09:15:45.341Z,0.20
2022-09-25T09:18:22.390Z,0.20
2022-09-25T09:20:54.406Z,0.20
2022-09-25T09:23:24.713Z,0.20
2022-09-25T09:26:04.324Z,0.20
2022-09-25T09:29:03.389Z,0.20
2022-09-25T09:31:42.624Z,0.20
2022-09-25T09:35:04.260Z,0.20
2022-09-25T09:37:40.490Z,0.20
2022-09-25T09:40:25.862Z,0.20
2022-09-25T09:43:03.750Z,0.20
2022-09-25T09:45:42.151Z,0.20
2022-09-25T09:48:22.715Z,0.20
2022-09-25T09:50:53.243Z,0.20
2022-09-25T09:53:30.946Z,0.20
2022-09-25T09:56:05.690Z,0.20
2022-09-25T09:58:45.881Z,0.20
2022-09-25T10:01:37.055Z,0.20
2022-09-25T10:04:08.205Z,0.20
2022-09-25T10:06:41.105Z,0.20
2022-09-25T10:09:15.316Z,0.20
2022-09-25T10:11:50.980Z,0.20
2022-09-25T10:14:25.338Z,0.20
2022-09-25T10:16:55.623Z,0.20
2022-09-25T10:19:29.461Z,0.20
2022-09-25T10:22:04.270Z,0.20
2022-09-25T10:24:53.345Z,0.20
2022-09-25T10:27:27.897Z,0.20
2022-09-25T10:30:21.123Z,0.20
2022-09-25T10:33:00.962Z,0.20
2022-09-25T10:35:48.893Z,0.20
2022-09-25T10:38:28.243Z,0.20
2022-09-25T10:41:04.720Z,0.20
2022-09-25T10:43:35.351Z,0.20
2022-09-25T10:46:53.730Z,0.20
2022-09-25T10:49:42.486Z,0.20
2022-09-25T10:52:14.490Z,0.20
2022-09-25T10:54:46.269Z,0.20
2022-09-25T10:57:25.588Z,0.20
2022-09-25T10:59:55.814Z,0.20
2022-09-25T11:02:39.178Z,0.20
2022-09-25T11:05:23.546Z,0.20
2022-09-25T11:08:01.324Z,0.20
2022-09-25T11:10:43.298Z,0.20
2022-09-25T11:13:26.211Z,0.20
2022-09-25T11:15:59.892Z,0.20
2022-09-25T11:18:42.313Z,0.20
2022-09-25T11:21:33.578Z,0.20
2022-09-25T11:24:14.538Z,0.20
2022-09-25T11:26:52.893Z,0.20
2022-09-25T11:29:36.697Z,0.20
2022-09-25T11:32:14.142Z,0.20
2022-09-25T11:35:04.595Z,0.20
2022-09-25T11:37:41.209Z,0.20
2022-09-25T11:41:00.592Z,0.20
2022-09-25T11:43:43.026Z,0.20
2022-09-25T11:46:22.253Z,0.20
2022-09-25T11:49:01.196Z,0.20
2022-09-25T11:52:03.417Z,0.20
2022-09-25T11:54:43.864Z,0.20
2022-09-25T11:57:18.349Z,0.20
2022-09-25T12:00:04.106Z,0.20
2022-09-25T12:02:41.041Z,0.20
2022-09-25T12:05:36.286Z,0.20
2022-09-25T12:08:17.870Z,0.20
2022-09-25T12:11:02.781Z,0.20
2022-09-25T12:13:40.704Z,0.20
2022-09-25T12:16:19.875Z,0.20
2022-09-25T12:18:57.680Z,0.20
2022-09-25T12:21:34.577Z,0.20
2022-09-25T12:24:10.326Z,0.20
2022-09-25T12:26:48.509Z,0.20
2022-09-25T12:29:30.909Z,0.20
2022-09-25T12:32:09.838Z,0.20
2022-09-25T12:35:15.597Z,0.20
2022-09-25T12:37:47.450Z,0.20
2022-09-25T12:40:34.204Z,0.20
2022-09-25T12:43:18.831Z,0.20
2022-09-25T12:45:58.883Z,0.20
2022-09-25T12:48:40.175Z,0.20
2022-09-25T12:51:16.428Z,0.20
2022-09-25T12:53:50.606Z,0.20
2022-09-25T12:56:27.147Z,0.20
2022-09-25T12:59:13.690Z,0.20
2022-09-25T13:01:57.447Z,0.20
2022-09-25T13:04:49.519Z,0.20
2022-09-25T13:07:28.683Z,0.20
2022-09-25T13:10:30.910Z,0.20
2022-09-25T13:13:04.047Z,0.20
2022-09-25T13:15:35.203Z,0.20
2022-09-25T13:18:06.466Z,0.20
2022-09-25T13:20:50.174Z,0.20
2022-09-25T13:23:30.068Z,0.20
2022-09-25T13:26:11.927Z,0.20
2022-09-25T13:28:42.501Z,0.20
2022-09-25T13:31:13.613Z,0.20
2022-09-25T13:33:52.403Z,0.20
2022-09-25T13:36:39.323Z,0.20
2022-09-25T13:42:25.540Z,0.20
2022-09-25T13:45:25.903Z,0.20
2022-09-25T13:48:04.481Z,0.20
2022-09-25T13:50:42.900Z,0.20
2022-09-25T13:53:36.589Z,0.20
2022-09-25T13:56:30.525Z,0.20
2022-09-25T13:59:24.441Z,0.20
2022-09-25T14:01:58.383Z,0.20
2022-09-25T14:04:37.458Z,0.20
2022-09-25T14:07:18.956Z,0.20
2022-09-25T14:09:52.861Z,0.20
2022-09-25T14:12:28.701Z,0.20
2022-09-25T14:15:01.105Z,0.20
2022-09-25T14:17:34.883Z,0.20
2022-09-25T14:20:07.546Z,0.20
2022-09-25T14:22:44.614Z,0.20
2022-09-25T14:25:36.451Z,0.20
2022-09-25T14:28:17.266Z,0.20
2022-09-25T14:30:52.789Z,0.20
2022-09-25T14:33:45.474Z,0.20
2022-09-25T14:36:29.111Z,0.20
2022-09-25T14:39:29.311Z,0.20
2022-09-25T14:42:16.075Z,0.20
2022-09-25T14:45:21.088Z,0.20
2022-09-25T14:47:51.737Z,0.20
2022-09-25T14:50:23.596Z,0.20
2022-09-25T14:53:00.517Z,0.20
2022-09-25T14:55:53.503Z,0.20
2022-09-25T14:58:27.339Z,0.20
2022-09-25T15:01:03.583Z,0.20
2022-09-25T15:04:06.876Z,0.20
2022-09-25T15:06:58.216Z,0.20
2022-09-25T15:09:32.076Z,0.20
2022-09-25T15:12:19.968Z,0.20
2022-09-25T15:15:07.981Z,0.20
2022-09-25T15:17:47.800Z,0.20
2022-09-25T15:20:19.526Z,0.20
2022-09-25T15:22:58.547Z,0.20
2022-09-25T15:25:31.242Z,0.20
2022-09-25T15:28:01.409Z,0.20
2022-09-25T15:30:31.870Z,0.20
2022-09-25T15:33:01.057Z,0.20
2022-09-25T15:35:30.739Z,0.20
2022-09-25T15:38:12.190Z,0.20
2022-09-25T15:40:41.392Z,0.20
2022-09-25T15:43:15.018Z,0.20
2022-09-25T15:45:46.291Z,0.20
2022-09-25T15:48:24.319Z,0.20
2022-09-25T15:50:54.332Z,0.20
2022-09-25T15:53:27.733Z,0.20
2022-09-25T15:56:20.097Z,0.20
2022-09-25T15:58:54.169Z,0.20
2022-09-25T16:01:43.281Z,0.20
2022-09-25T16:07:25.128Z,0.20
2022-09-25T16:09:54.342Z,0.20
2022-09-25T16:12:28.207Z,0.20
2022-09-25T16:14:59.087Z,0.20
2022-09-25T16:17:34.552Z,0.20
2022-09-25T16:20:06.762Z,0.20
2022-09-25T16:22:42.377Z,0.20
2022-09-25T16:25:17.497Z,0.20
2022-09-25T16:27:47.609Z,0.20
2022-09-25T16:30:22.745Z,0.20
2022-09-25T16:32:53.737Z,0.20
2022-09-25T16:35:26.088Z,0.20
2022-09-25T16:37:55.060Z,0.30
2022-09-25T16:40:33.551Z,0.20
2022-09-25T16:43:02.463Z,0.20
2022-09-25T16:45:34.282Z,0.20
2022-09-25T16:48:23.947Z,0.20
2022-09-25T16:50:52.068Z,0.20
2022-09-25T16:53:19.926Z,0.20
2022-09-25T16:55:53.400Z,0.20
2022-09-25T16:58:22.350Z,0.20
2022-09-25T17:00:52.091Z,0.20
2022-09-25T17:03:20.824Z,0.20
2022-09-25T17:05:49.490Z,0.20
2022-09-25T17:08:20.257Z,0.20
2022-09-25T17:10:56.938Z,0.27
2022-09-25T17:13:30.529Z,0.20
2022-09-25T17:15:59.841Z,0.20
2022-09-25T17:18:27.700Z,0.20
2022-09-25T17:20:57.691Z,0.20
2022-09-25T17:23:27.289Z,0.20
2022-09-25T17:26:00.841Z,0.20
2022-09-25T17:28:29.418Z,0.23
2022-09-25T17:30:57.994Z,0.27
2022-09-25T17:33:27.973Z,0.20
2022-09-25T17:36:02.671Z,0.30
2022-09-25T17:38:32.355Z,0.20
2022-09-25T17:41:05.581Z,0.27
2022-09-25T17:43:34.916Z,0.20
2022-09-25T17:46:04.561Z,0.20
2022-09-25T17:48:34.140Z,0.20
2022-09-25T17:51:27.394Z,0.20
2022-09-25T17:53:59.444Z,0.20
2022-09-25T17:56:29.557Z,0.20
2022-09-25T17:58:57.835Z,0.30
2022-09-25T18:01:28.590Z,0.20
2022-09-25T18:04:00.056Z,0.20
2022-09-25T18:06:30.463Z,0.30
2022-09-25T18:08:58.529Z,0.27
2022-09-25T18:11:27.369Z,0.30
2022-09-25T18:13:57.006Z,0.20
2022-09-25T18:16:29.713Z,0.27
2022-09-25T18:19:16.925Z,0.20
2022-09-25T18:22:02.308Z,0.20
2022-09-25T18:24:32.218Z,0.20
2022-09-25T18:27:03.095Z,0.20
2022-09-25T18:29:31.096Z,0.20
2022-09-25T18:31:59.183Z,0.20
2022-09-25T18:34:29.596Z,0.20
2022-09-25T18:37:07.100Z,0.20
2022-09-25T18:39:34.910Z,0.20
2022-09-25T18:42:02.898Z,0.20
2022-09-25T18:44:38.558Z,0.20
2022-09-25T18:47:08.190Z,0.20
2022-09-25T18:49:37.987Z,0.20
2022-09-25T18:52:09.258Z,0.30
2022-09-25T18:54:37.211Z,0.20
2022-09-25T18:57:05.229Z,0.23
2022-09-25T18:59:33.142Z,0.20
2022-09-25T19:02:01.940Z,0.20
2022-09-25T19:04:30.288Z,0.20
2022-09-25T19:06:59.668Z,0.30
2022-09-25T19:09:29.258Z,0.20
2022-09-25T19:11:57.158Z,0.20
2022-09-25T19:14:25.323Z,0.27
2022-09-25T19:16:53.672Z,0.20
2022-09-25T19:19:21.813Z,0.20
2022-09-25T19:21:52.498Z,0.20
2022-09-25T19:24:21.873Z,0.20
2022-09-25T19:26:50.492Z,0.20
2022-09-25T19:29:18.315Z,0.20
2022-09-25T19:31:46.719Z,0.20
2022-09-25T19:34:14.696Z,0.20
2022-09-25T19:36:42.562Z,0.20
2022-09-25T19:39:10.495Z,0.20
2022-09-25T19:41:41.073Z,0.20
2022-09-25T19:44:13.620Z,0.20
2022-09-25T19:46:42.734Z,0.20
2022-09-25T19:49:11.122Z,0.20
2022-09-25T19:51:41.259Z,0.20
2022-09-25T19:54:16.488Z,0.20
2022-09-25T19:56:46.314Z,0.20
2022-09-25T19:59:17.480Z,0.20
2022-09-25T20:01:46.108Z,0.30
2022-09-25T20:04:18.614Z,0.20
2022-09-25T20:06:47.402Z,0.20
2022-09-25T20:09:15.646Z,0.20
2022-09-25T20:11:45.809Z,0.20
2022-09-25T20:14:16.085Z,0.20
2022-09-25T20:16:53.465Z,0.20
2022-09-25T20:19:22.042Z,0.20
2022-09-25T20:21:52.905Z,0.30
2022-09-25T20:24:21.148Z,0.20
2022-09-25T20:27:00.827Z,0.20
2022-09-25T20:29:29.232Z,0.20
2022-09-25T20:31:57.211Z,0.20
2022-09-25T20:34:25.315Z,0.20
2022-09-25T20:36:53.348Z,0.20
2022-09-25T20:39:23.186Z,0.30
2022-09-25T20:41:52.414Z,0.20
2022-09-25T20:44:20.380Z,0.20
2022-09-25T20:46:48.664Z,0.20
2022-09-25T20:49:20.315Z,0.20
2022-09-25T20:51:48.288Z,0.20
2022-09-25T20:54:16.403Z,0.20
2022-09-25T20:56:45.463Z,0.20
2022-09-25T20:59:16.189Z,0.20
2022-09-25T21:01:44.242Z,0.20
2022-09-25T21:04:12.138Z,0.20
2022-09-25T21:06:42.157Z,0.20
2022-09-25T21:09:15.822Z,0.20
2022-09-25T21:11:44.194Z,0.20
2022-09-25T21:14:16.665Z,0.20
2022-09-25T21:16:47.386Z,0.20
2022-09-25T21:19:19.712Z,0.20
2022-09-25T21:21:48.468Z,0.20
2022-09-25T21:24:19.086Z,0.20
2022-09-25T21:26:47.583Z,0.20
2022-09-25T21:29:18.179Z,0.20
2022-09-25T21:31:53.457Z,0.20
2022-09-25T21:34:21.402Z,0.20
2022-09-25T21:36:49.317Z,0.20
2022-09-25T21:39:27.784Z,0.20
2022-09-25T21:41:55.901Z,0.20
2022-09-25T21:44:25.643Z,0.20
2022-09-25T21:46:53.780Z,0.20
2022-09-25T21:49:23.006Z,0.20
2022-09-25T21:51:51.637Z,0.20
2022-09-25T21:54:20.705Z,0.20
2022-09-25T21:56:49.383Z,0.20
2022-09-25T21:59:18.195Z,0.20
2022-09-25T22:01:47.514Z,0.27
2022-09-25T22:04:16.205Z,0.20
2022-09-25T22:06:46.997Z,0.20
2022-09-25T22:09:16.822Z,0.20
2022-09-25T22:11:45.667Z,0.20
2022-09-25T22:14:16.021Z,0.20
2022-09-25T22:16:50.380Z,0.20
2022-09-25T22:19:20.738Z,0.20
2022-09-25T22:21:50.842Z,0.20
2022-09-25T22:24:19.136Z,0.30
2022-09-25T22:26:48.880Z,0.20
2022-09-25T22:29:17.589Z,0.20
2022-09-25T22:31:45.823Z,0.23
2022-09-25T22:34:21.388Z,0.20
2022-09-25T22:36:53.556Z,0.20
2022-09-25T22:39:24.444Z,0.27
2022-09-25T22:41:53.830Z,0.20
2022-09-25T22:44:22.659Z,0.20
2022-09-25T22:46:50.507Z,0.20
2022-09-25T22:49:19.711Z,0.20
2022-09-25T22:51:47.810Z,0.20
2022-09-25T22:54:16.056Z,0.20
2022-09-25T22:56:44.952Z,0.20
2022-09-25T22:59:16.203Z,0.20
2022-09-25T23:01:47.926Z,0.20
2022-09-25T23:04:18.697Z,0.20
2022-09-25T23:06:48.612Z,0.20
2022-09-25T23:09:18.707Z,0.20
2022-09-25T23:11:46.926Z,0.20
2022-09-25T23:14:17.142Z,0.20
2022-09-25T23:16:46.141Z,0.20
2022-09-25T23:19:15.558Z,0.20
2022-09-25T23:21:43.891Z,0.20
2022-09-25T23:24:15.396Z,0.20
2022-09-25T23:26:43.685Z,0.30
2022-09-25T23:29:13.053Z,0.20
2022-09-25T23:31:42.233Z,0.20
2022-09-25T23:34:11.823Z,0.20
2022-09-25T23:36:39.959Z,0.20
2022-09-25T23:39:09.869Z,0.20
2022-09-25T23:41:40.725Z,0.20
2022-09-25T23:44:10.845Z,0.20
2022-09-25T23:46:40.683Z,0.20
2022-09-25T23:49:09.136Z,0.20
2022-09-25T23:51:37.076Z,0.20
2022-09-25T23:54:05.311Z,0.20
2022-09-25T23:56:34.634Z,0.20
2022-09-25T23:59:05.238Z,0.20
